createdAt,value
2022-11-21T00:03:44.275Z,81.27
2022-11-21T00:08:47.042Z,81.99
2022-11-21T00:13:50.338Z,83.54
2022-11-21T00:18:52.240Z,84.75
2022-11-21T00:23:54.236Z,85.07
2022-11-21T00:28:57.493Z,86.27
2022-11-21T00:33:59.564Z,86.48
2022-11-21T00:39:01.500Z,86.67
2022-11-21T00:44:05.095Z,88.05
2022-11-21T00:49:07.016Z,88.07
2022-11-21T00:54:09.215Z,88.70
2022-11-21T00:59:12.479Z,88.41
2022-11-21T01:04:14.502Z,89.69
2022-11-21T01:09:16.469Z,90.82
2022-11-21T01:14:19.710Z,90.11
2022-11-21T01:19:21.693Z,91.16
2022-11-21T01:24:23.604Z,91.14
2022-11-21T01:29:27.456Z,90.53
2022-11-21T01:34:29.732Z,90.30
2022-11-21T01:39:31.757Z,90.30
2022-11-21T01:44:49.892Z,89.69
2022-11-21T01:49:53.621Z,90.47
2022-11-21T01:54:59.816Z,90.52
2022-11-21T02:00:10.216Z,90.31
2022-11-21T02:05:17.500Z,90.84
2022-11-21T02:10:19.515Z,91.38
2022-11-21T02:15:25.219Z,91.49
2022-11-21T02:20:29.006Z,91.18
2022-11-21T02:25:35.113Z,91.38
2022-11-21T02:30:38.917Z,91.75
2022-11-21T02:35:41.416Z,91.25
2022-11-21T02:40:53.406Z,89.03
2022-11-21T02:45:56.201Z,86.22
2022-11-21T02:50:58.105Z,86.41
2022-11-21T02:56:01.567Z,87.52
2022-11-21T03:01:03.818Z,88.13
2022-11-21T03:06:05.931Z,86.37
2022-11-21T03:11:09.165Z,85.90
2022-11-21T03:16:11.104Z,86.04
2022-11-21T03:21:12.985Z,86.77
2022-11-21T03:26:16.960Z,85.13
2022-11-21T03:31:18.837Z,85.69
2022-11-21T03:36:20.797Z,85.89
2022-11-21T03:41:29.744Z,85.92
2022-11-21T03:46:34.826Z,86.33
2022-11-21T03:51:37.557Z,85.38
2022-11-21T03:56:40.937Z,85.55
2022-11-21T04:01:42.826Z,84.93
2022-11-21T04:06:45.319Z,84.83
2022-11-21T04:11:48.552Z,83.72
2022-11-21T04:16:50.450Z,84.02
2022-11-21T04:21:52.351Z,83.99
2022-11-21T04:26:55.756Z,84.57
2022-11-21T04:31:57.696Z,83.66
2022-11-21T04:36:59.623Z,84.19
2022-11-21T04:42:03.057Z,83.81
2022-11-21T04:47:05.697Z,84.34
2022-11-21T04:52:07.859Z,84.43
2022-11-21T04:57:11.117Z,83.15
2022-11-21T05:02:13.081Z,82.92
2022-11-21T05:07:15.375Z,83.37
2022-11-21T05:12:37.397Z,83.52
2022-11-21T05:17:39.319Z,82.61
2022-11-21T05:22:41.222Z,82.29
2022-11-21T05:27:44.579Z,80.99
2022-11-21T05:32:46.504Z,80.25
2022-11-21T05:37:48.392Z,80.38
2022-11-21T05:43:10.392Z,79.65
2022-11-21T05:48:12.330Z,77.17
2022-11-21T05:53:14.332Z,76.80
2022-11-21T05:58:17.598Z,76.14
2022-11-21T06:03:28.601Z,76.42
2022-11-21T06:08:33.201Z,76.67
2022-11-21T06:13:37.482Z,76.46
2022-11-21T06:18:40.862Z,76.67
2022-11-21T06:23:43.467Z,78.26
2022-11-21T06:28:47.885Z,77.39
2022-11-21T06:33:52.237Z,78.51
2022-11-21T06:38:55.451Z,78.16
2022-11-21T06:44:01.334Z,77.59
2022-11-21T06:49:03.314Z,77.25
2022-11-21T06:54:05.275Z,75.45
2022-11-21T06:59:08.522Z,74.83
2022-11-21T07:04:10.577Z,74.95
2022-11-21T07:14:35.851Z,72.98
2022-11-21T07:19:40.839Z,72.57
2022-11-21T07:24:43.144Z,72.13
2022-11-21T07:29:46.393Z,72.88
2022-11-21T07:34:48.347Z,71.69
2022-11-21T07:39:50.298Z,71.23
2022-11-21T07:44:53.548Z,71.89
2022-11-21T07:49:55.479Z,70.88
2022-11-21T07:54:57.702Z,71.36
2022-11-21T08:00:00.991Z,70.06
2022-11-21T08:05:02.948Z,70.07
2022-11-21T08:10:05.705Z,72.57
2022-11-21T08:15:10.122Z,71.49
2022-11-21T08:20:12.162Z,72.53
2022-11-21T08:25:14.203Z,69.95
2022-11-21T08:30:17.573Z,70.46
2022-11-21T08:35:19.830Z,70.12
2022-11-21T08:40:21.736Z,70.16
2022-11-21T08:45:25.995Z,69.08
2022-11-21T08:50:28.225Z,68.39
2022-11-21T08:55:30.834Z,68.35
2022-11-21T09:00:34.668Z,68.85
2022-11-21T09:05:36.584Z,68.85
2022-11-21T09:10:38.539Z,68.24
2022-11-21T09:16:00.552Z,67.02
2022-11-21T09:21:02.461Z,67.22
2022-11-21T09:26:04.443Z,66.62
2022-11-21T09:31:07.870Z,68.31
2022-11-21T09:36:09.861Z,67.13
2022-11-21T09:41:41.433Z,68.68
2022-11-21T09:46:47.338Z,67.91
2022-11-21T09:51:50.524Z,68.16
2022-11-21T09:56:54.735Z,68.48
2022-11-21T10:01:58.120Z,69.31
2022-11-21T10:07:04.742Z,69.44
2022-11-21T10:12:33.287Z,69.80
2022-11-21T10:17:52.665Z,69.61
2022-11-21T10:23:08.759Z,69.47
2022-11-21T10:28:20.356Z,68.72
2022-11-21T10:33:30.427Z,69.76
2022-11-21T10:38:38.387Z,68.91
2022-11-21T10:44:03.898Z,69.07
2022-11-21T10:49:14.243Z,71.13
2022-11-21T10:54:34.781Z,70.87
2022-11-21T10:59:36.752Z,70.93
2022-11-21T11:04:47.301Z,69.67
2022-11-21T11:10:15.071Z,68.83
2022-11-21T11:15:19.589Z,68.31
2022-11-21T11:20:39.801Z,69.12
2022-11-21T11:25:45.910Z,67.10
2022-11-21T11:30:49.095Z,67.93
2022-11-21T11:35:52.375Z,67.35
2022-11-21T11:40:54.474Z,67.69
2022-11-21T11:46:36.186Z,67.48
2022-11-21T11:51:44.708Z,68.12
2022-11-21T11:56:47.378Z,67.19
2022-11-21T12:01:56.003Z,68.22
2022-11-21T12:12:35.500Z,66.83
2022-11-21T12:17:41.986Z,67.68
2022-11-21T12:22:48.957Z,67.75
2022-11-21T12:27:53.658Z,68.27
2022-11-21T12:33:08.596Z,68.79
2022-11-21T12:38:26.904Z,68.37
2022-11-21T12:43:37.807Z,67.85
2022-11-21T12:49:15.014Z,68.74
2022-11-21T12:54:42.539Z,69.39
2022-11-21T12:59:52.240Z,67.78
2022-11-21T13:04:57.196Z,68.04
2022-11-21T13:10:03.498Z,68.87
2022-11-21T13:15:15.833Z,68.97
2022-11-21T13:20:27.226Z,68.26
2022-11-21T13:25:47.521Z,68.49
2022-11-21T13:30:50.512Z,69.91
2022-11-21T13:35:56.366Z,68.95
2022-11-21T13:41:18.482Z,69.30
2022-11-21T13:46:59.535Z,81.17
2022-11-21T13:52:07.814Z,74.54
2022-11-21T13:57:26.835Z,73.79
2022-11-21T14:02:48.010Z,73.90
2022-11-21T14:07:51.171Z,74.28
2022-11-21T14:12:56.154Z,75.06
2022-11-21T14:17:59.754Z,74.78
2022-11-21T14:23:04.606Z,75.19
2022-11-21T14:28:11.166Z,74.47
2022-11-21T14:33:28.438Z,75.53
2022-11-21T14:38:34.954Z,75.62
2022-11-21T14:43:38.261Z,74.12
2022-11-21T14:48:43.200Z,74.79
2022-11-21T14:53:47.247Z,74.77
2022-11-21T14:58:51.662Z,74.88
2022-11-21T15:03:57.834Z,73.20
2022-11-21T15:10:24.800Z,74.73
2022-11-21T15:14:29.365Z,74.15
2022-11-21T15:19:32.762Z,76.30
2022-11-21T15:24:42.195Z,74.58
2022-11-21T15:29:45.632Z,75.89
2022-11-21T15:34:47.573Z,75.45
2022-11-21T15:39:51.441Z,74.93
2022-11-21T15:44:59.776Z,75.48
2022-11-21T15:50:01.941Z,75.00
2022-11-21T15:55:09.140Z,76.44
2022-11-21T16:00:13.869Z,76.75
2022-11-21T16:05:16.467Z,76.49
2022-11-21T16:10:26.180Z,75.29
2022-11-21T16:15:30.714Z,74.24
2022-11-21T16:20:32.662Z,74.36
2022-11-21T16:25:34.705Z,74.06
2022-11-21T16:30:40.137Z,73.58
2022-11-21T16:35:42.281Z,74.45
2022-11-21T16:40:53.260Z,73.56
2022-11-21T16:46:06.212Z,74.86
2022-11-21T16:51:12.568Z,74.63
2022-11-21T16:56:15.432Z,75.30
2022-11-21T17:01:20.320Z,75.80
2022-11-21T17:06:24.367Z,75.40
2022-11-21T17:11:29.336Z,74.14
2022-11-21T17:16:34.608Z,75.29
2022-11-21T17:21:36.622Z,75.71
2022-11-21T17:26:38.607Z,76.06
2022-11-21T17:31:42.685Z,76.04
2022-11-21T17:36:44.687Z,76.67
2022-11-21T17:41:46.657Z,77.69
2022-11-21T17:46:50.212Z,77.85
2022-11-21T17:51:56.520Z,79.00
2022-11-21T17:57:00.052Z,78.26
2022-11-21T18:02:03.609Z,76.39
2022-11-21T18:07:06.821Z,78.23
2022-11-21T18:12:08.850Z,77.64
2022-11-21T18:17:12.137Z,79.76
2022-11-21T18:22:15.909Z,78.53
2022-11-21T18:27:17.841Z,77.90
2022-11-21T18:32:21.119Z,77.76
2022-11-21T18:37:23.073Z,77.24
2022-11-21T18:42:25.004Z,77.32
2022-11-21T18:47:28.351Z,77.40
2022-11-21T18:52:33.708Z,77.71
2022-11-21T18:57:35.678Z,77.60
2022-11-21T19:02:38.978Z,78.60
2022-11-21T19:07:41.367Z,76.69
2022-11-21T19:12:43.445Z,78.02
2022-11-21T19:17:46.736Z,76.63
2022-11-21T19:22:48.747Z,77.04
2022-11-21T19:27:50.708Z,77.75
2022-11-21T19:32:54.418Z,76.35
2022-11-21T19:37:56.591Z,77.70
2022-11-21T19:42:58.539Z,76.95
2022-11-21T19:48:01.822Z,78.68
2022-11-21T19:53:03.785Z,77.73
2022-11-21T19:58:05.745Z,78.54
2022-11-21T20:03:09.828Z,77.68
2022-11-21T20:08:17.356Z,78.20
2022-11-21T20:13:20.040Z,78.15
2022-11-21T20:18:23.430Z,77.32
2022-11-21T20:23:25.502Z,77.42
2022-11-21T20:28:27.667Z,77.97
2022-11-21T20:33:34.186Z,78.24
2022-11-21T20:38:36.559Z,77.33
2022-11-21T20:44:20.002Z,77.43
2022-11-21T20:49:01.978Z,78.03
2022-11-21T20:54:04.404Z,78.67
2022-11-21T20:59:06.524Z,77.81
2022-11-21T21:04:09.797Z,78.18
2022-11-21T21:09:11.756Z,78.78
2022-11-21T21:14:13.697Z,80.16
2022-11-21T21:19:17.702Z,80.23
2022-11-21T21:24:19.668Z,79.44
2022-11-21T21:29:21.701Z,80.39
2022-11-21T21:34:24.991Z,80.62
2022-11-21T21:39:27.324Z,80.56
2022-11-21T21:44:33.179Z,80.44
2022-11-21T21:49:37.057Z,80.42
2022-11-21T21:54:39.452Z,80.90
2022-11-21T21:59:41.386Z,80.82
2022-11-21T22:04:49.149Z,81.01
2022-11-21T22:09:53.755Z,81.00
2022-11-21T22:14:55.714Z,80.60
2022-11-21T22:19:58.974Z,82.75
2022-11-21T22:25:00.889Z,83.99
2022-11-21T22:30:02.847Z,84.70
2022-11-21T22:35:07.189Z,85.56
2022-11-21T22:40:10.512Z,86.00
2022-11-21T22:45:12.464Z,86.48
2022-11-21T22:50:16.150Z,86.76
2022-11-21T22:55:18.175Z,87.03
2022-11-21T23:00:20.709Z,87.68
2022-11-21T23:05:23.961Z,87.07
2022-11-21T23:10:25.900Z,86.92
2022-11-21T23:15:27.809Z,86.36
2022-11-21T23:20:31.105Z,86.69
2022-11-21T23:25:33.023Z,87.81
2022-11-21T23:30:34.967Z,88.49
2022-11-21T23:35:38.425Z,87.89
2022-11-21T23:40:40.561Z,88.82
2022-11-21T23:45:43.513Z,86.76
2022-11-21T23:50:47.368Z,84.20
2022-11-21T23:55:49.512Z,82.41
